Time,TemperatureF,DewpointF,PressureIn,WindDirection,WindDirectionDegrees,WindSpeedMPH,WindSpeedGustMPH,Humidity,HourlyPrecipIn,Conditions,Clouds,dailyrainin,SoftwareType,DateUTC
2013-05-20 00:00:00,61.7,51.8,30.07,WNW,290,5.0,6.0,70,0.00,,,0.00,VWS V14.01,2013-05-19 22:00:00,
2013-05-20 00:01:00,61.7,51.8,30.07,WNW,289,3.0,6.0,70,0.00,,,0.00,VWS V14.01,2013-05-19 22:01:00,
2013-05-20 00:06:00,61.9,52.0,30.07,WNW,284,4.0,7.0,70,0.00,,,0.00,VWS V14.01,2013-05-19 22:06:00,
2013-05-20 00:10:00,61.9,52.4,30.07,WNW,285,2.0,7.0,71,0.00,,,0.00,VWS V14.01,2013-05-19 22:10:00,
2013-05-20 00:11:00,61.9,52.4,30.07,WNW,285,3.0,7.0,71,0.00,,,0.00,VWS V14.01,2013-05-19 22:11:00,
2013-05-20 00:16:00,61.9,52.4,30.07,WNW,285,0.0,4.0,71,0.00,,,0.00,VWS V14.01,2013-05-19 22:16:00,
2013-05-20 00:20:00,61.9,52.4,30.07,WNW,285,3.0,4.0,71,0.00,,,0.00,VWS V14.01,2013-05-19 22:20:00,
2013-05-20 00:21:00,61.9,52.4,30.07,WNW,285,2.0,4.0,71,0.00,,,0.00,VWS V14.01,2013-05-19 22:21:00,
2013-05-20 00:26:00,61.9,52.4,30.07,WNW,285,1.0,3.0,71,0.00,,,0.00,VWS V14.01,2013-05-19 22:26:00,
2013-05-20 00:30:00,62.1,52.6,30.07,WNW,285,0.0,3.0,71,0.00,,,0.00,VWS V14.01,2013-05-19 22:30:00,
2013-05-20 00:31:00,62.1,52.6,30.07,WNW,285,0.0,3.0,71,0.00,,,0.00,VWS V14.01,2013-05-19 22:31:00,
2013-05-20 00:36:00,62.1,52.6,30.08,WNW,285,0.0,0.0,71,0.00,,,0.00,VWS V14.01,2013-05-19 22:36:00,
2013-05-20 00:40:00,62.3,53.2,30.08,WNW,285,2.0,3.0,72,0.00,,,0.00,VWS V14.01,2013-05-19 22:40:00,
2013-05-20 00:41:00,62.3,53.2,30.08,WNW,285,0.0,3.0,72,0.00,,,0.00,VWS V14.01,2013-05-19 22:41:00,
2013-05-20 00:46:00,62.3,53.5,30.08,WNW,285,2.0,4.0,73,0.00,,,0.00,VWS V14.01,2013-05-19 22:46:00,
2013-05-20 00:50:00,62.2,53.8,30.08,WNW,285,3.0,4.0,74,0.00,,,0.00,VWS V14.01,2013-05-19 22:50:00,
2013-05-20 00:51:00,62.2,53.5,30.08,WNW,285,1.0,4.0,73,0.00,,,0.00,VWS V14.01,2013-05-19 22:51:00,
2013-05-20 00:56:00,62.2,53.8,30.07,WNW,285,3.0,4.0,74,0.00,,,0.00,VWS V14.01,2013-05-19 22:56:00,
2013-05-20 01:00:00,62.7,55.0,30.07,West,276,4.0,9.0,76,0.00,,,0.00,VWS V14.01,2013-05-19 23:00:00,
2013-05-20 01:01:00,62.7,55.0,30.07,West,275,3.0,9.0,76,0.00,,,0.00,VWS V14.01,2013-05-19 23:01:00,
2013-05-20 01:06:00,62.8,55.1,30.07,West,281,3.0,10.0,76,0.00,,,0.00,VWS V14.01,2013-05-19 23:06:00,
2013-05-20 01:10:00,63.0,55.7,30.07,WSW,250,10.0,11.0,77,0.00,,,0.00,VWS V14.01,2013-05-19 23:10:00,
2013-05-20 01:11:00,63.0,55.7,30.07,WSW,250,9.0,11.0,77,0.00,,,0.00,VWS V14.01,2013-05-19 23:11:00,
2013-05-20 01:16:00,63.1,55.8,30.08,West,261,10.0,11.0,77,0.00,,,0.00,VWS V14.01,2013-05-19 23:16:00,
2013-05-20 01:20:00,63.1,55.8,30.07,West,262,7.0,11.0,77,0.00,,,0.00,VWS V14.01,2013-05-19 23:20:00,
2013-05-20 01:21:00,63.1,55.8,30.07,West,263,1.0,11.0,77,0.00,,,0.00,VWS V14.01,2013-05-19 23:21:00,
2013-05-20 01:26:00,63.0,55.7,30.07,WSW,248,3.0,9.0,77,0.00,,,0.00,VWS V14.01,2013-05-19 23:26:00,
2013-05-20 01:30:00,63.0,55.7,30.07,West,262,6.0,10.0,77,0.00,,,0.00,VWS V14.01,2013-05-19 23:30:00,
2013-05-20 01:31:00,63.0,55.7,30.07,WNW,294,3.0,10.0,77,0.00,,,0.00,VWS V14.01,2013-05-19 23:31:00,
2013-05-20 01:36:00,62.9,55.6,30.07,West,262,0.0,9.0,77,0.00,,,0.00,VWS V14.01,2013-05-19 23:36:00,
2013-05-20 01:40:00,62.5,55.6,30.07,West,263,0.0,9.0,78,0.00,,,0.00,VWS V14.01,2013-05-19 23:40:00,
2013-05-20 01:41:00,62.6,55.7,30.07,West,263,0.0,9.0,78,0.00,,,0.00,VWS V14.01,2013-05-19 23:41:00,
2013-05-20 01:46:00,62.4,55.5,30.07,West,264,1.0,5.0,78,0.00,,,0.00,VWS V14.01,2013-05-19 23:46:00,
2013-05-20 01:50:00,62.3,55.4,30.07,West,264,1.0,5.0,78,0.00,,,0.00,VWS V14.01,2013-05-19 23:50:00,
2013-05-20 01:51:00,62.3,55.4,30.07,West,264,1.0,5.0,78,0.00,,,0.00,VWS V14.01,2013-05-19 23:51:00,
2013-05-20 01:56:00,62.1,55.5,30.07,West,264,1.0,3.0,79,0.00,,,0.00,VWS V14.01,2013-05-19 23:56:00,
2013-05-20 02:00:00,62.0,55.4,30.07,West,265,1.0,5.0,79,0.00,,,0.00,VWS V14.01,2013-05-20 00:00:00,
2013-05-20 02:01:00,62.0,55.4,30.07,West,265,4.0,5.0,79,0.00,,,0.00,VWS V14.01,2013-05-20 00:01:00,
2013-05-20 02:06:00,61.8,55.2,30.07,West,265,2.0,2.0,79,0.00,,,0.00,VWS V14.01,2013-05-20 00:06:00,
2013-05-20 02:10:00,61.8,55.2,30.07,West,265,1.0,3.0,79,0.00,,,0.00,VWS V14.01,2013-05-20 00:10:00,
2013-05-20 02:11:00,61.8,55.2,30.07,West,265,1.0,3.0,79,0.00,,,0.00,VWS V14.01,2013-05-20 00:11:00,
2013-05-20 02:16:00,61.8,55.6,30.07,West,265,0.0,3.0,80,0.00,,,0.00,VWS V14.01,2013-05-20 00:16:00,
2013-05-20 02:20:00,61.6,55.4,30.06,West,265,2.0,3.0,80,0.00,,,0.00,VWS V14.01,2013-05-20 00:20:00,
2013-05-20 02:21:00,61.6,55.4,30.07,West,265,2.0,3.0,80,0.00,,,0.00,VWS V14.01,2013-05-20 00:21:00,
2013-05-20 02:26:00,61.4,55.2,30.07,West,265,0.0,2.0,80,0.00,,,0.00,VWS V14.01,2013-05-20 00:26:00,
2013-05-20 02:30:00,61.2,55.0,30.07,West,265,1.0,2.0,80,0.00,,,0.00,VWS V14.01,2013-05-20 00:30:00,
2013-05-20 02:31:00,61.2,55.0,30.07,West,265,0.0,2.0,80,0.00,,,0.00,VWS V14.01,2013-05-20 00:31:00,
2013-05-20 02:36:00,61.2,55.0,30.06,West,265,0.0,2.0,80,0.00,,,0.00,VWS V14.01,2013-05-20 00:36:00,
2013-05-20 02:40:00,61.1,54.9,30.06,West,265,0.0,2.0,80,0.00,,,0.00,VWS V14.01,2013-05-20 00:40:00,
2013-05-20 02:41:00,61.1,54.9,30.06,West,265,0.0,2.0,80,0.00,,,0.00,VWS V14.01,2013-05-20 00:41:00,
2013-05-20 02:46:00,61.0,55.1,30.06,West,265,0.0,0.0,81,0.00,,,0.00,VWS V14.01,2013-05-20 00:46:00,
2013-05-20 02:50:00,61.0,55.1,30.06,West,265,1.0,2.0,81,0.00,,,0.00,VWS V14.01,2013-05-20 00:50:00,
2013-05-20 02:51:00,61.0,55.1,30.06,West,265,1.0,2.0,81,0.00,,,0.00,VWS V14.01,2013-05-20 00:51:00,
2013-05-20 02:56:00,60.9,55.0,30.06,West,265,0.0,1.0,81,0.00,,,0.00,VWS V14.01,2013-05-20 00:56:00,
2013-05-20 03:00:00,60.7,54.8,30.06,West,265,0.0,1.0,81,0.00,,,0.00,VWS V14.01,2013-05-20 01:00:00,
2013-05-20 03:01:00,60.7,54.8,30.06,West,265,0.0,1.0,81,0.00,,,0.00,VWS V14.01,2013-05-20 01:01:00,
2013-05-20 03:06:00,60.6,54.8,30.06,West,265,0.0,0.0,81,0.00,,,0.00,VWS V14.01,2013-05-20 01:06:00,
2013-05-20 03:10:00,60.8,55.3,30.06,West,265,0.0,1.0,82,0.00,,,0.00,VWS V14.01,2013-05-20 01:10:00,
2013-05-20 03:11:00,60.8,55.3,30.06,West,265,0.0,1.0,82,0.00,,,0.00,VWS V14.01,2013-05-20 01:11:00,
2013-05-20 03:16:00,60.8,55.3,30.06,West,265,1.0,2.0,82,0.00,,,0.00,VWS V14.01,2013-05-20 01:16:00,
2013-05-20 03:20:00,60.8,55.3,30.06,West,265,0.0,2.0,82,0.00,,,0.00,VWS V14.01,2013-05-20 01:20:00,
2013-05-20 03:21:00,60.8,55.3,30.06,West,265,0.0,2.0,82,0.00,,,0.00,VWS V14.01,2013-05-20 01:21:00,
2013-05-20 03:26:00,60.7,55.2,30.06,West,265,0.0,2.0,82,0.00,,,0.00,VWS V14.01,2013-05-20 01:26:00,
2013-05-20 03:30:00,60.6,55.1,30.06,West,265,0.0,2.0,82,0.00,,,0.00,VWS V14.01,2013-05-20 01:30:00,
2013-05-20 03:31:00,60.6,55.1,30.06,West,265,0.0,2.0,82,0.00,,,0.00,VWS V14.01,2013-05-20 01:31:00,
2013-05-20 03:36:00,60.8,55.3,30.06,West,265,0.0,0.0,82,0.00,,,0.00,VWS V14.01,2013-05-20 01:36:00,
2013-05-20 03:40:00,60.6,55.1,30.06,West,265,0.0,0.0,82,0.00,,,0.00,VWS V14.01,2013-05-20 01:40:00,
2013-05-20 03:41:00,60.7,55.2,30.06,West,265,0.0,0.0,82,0.00,,,0.00,VWS V14.01,2013-05-20 01:41:00,
2013-05-20 03:46:00,60.5,55.0,30.07,West,265,0.0,0.0,82,0.00,,,0.00,VWS V14.01,2013-05-20 01:46:00,
2013-05-20 03:50:00,60.5,55.3,30.06,West,265,0.0,0.0,83,0.00,,,0.00,VWS V14.01,2013-05-20 01:50:00,
2013-05-20 03:51:00,60.5,55.3,30.06,West,265,0.0,0.0,83,0.00,,,0.00,VWS V14.01,2013-05-20 01:51:00,
2013-05-20 03:56:00,60.4,55.2,30.07,West,265,0.0,0.0,83,0.00,,,0.00,VWS V14.01,2013-05-20 01:56:00,
2013-05-20 04:00:00,60.5,55.3,30.07,West,265,0.0,2.0,83,0.00,,,0.00,VWS V14.01,2013-05-20 02:00:00,
2013-05-20 04:01:00,60.5,55.3,30.06,West,265,0.0,2.0,83,0.00,,,0.00,VWS V14.01,2013-05-20 02:01:00,
2013-05-20 04:06:00,60.4,55.2,30.07,West,265,0.0,0.0,83,0.00,,,0.00,VWS V14.01,2013-05-20 02:06:00,
2013-05-20 04:10:00,60.4,55.2,30.06,West,265,0.0,0.0,83,0.00,,,0.00,VWS V14.01,2013-05-20 02:10:00,
2013-05-20 04:11:00,60.4,55.2,30.07,West,265,0.0,0.0,83,0.00,,,0.00,VWS V14.01,2013-05-20 02:11:00,
2013-05-20 04:16:00,60.5,55.3,30.07,West,265,0.0,0.0,83,0.00,,,0.00,VWS V14.01,2013-05-20 02:16:00,
2013-05-20 04:20:00,60.5,55.3,30.07,West,265,0.0,0.0,83,0.00,,,0.00,VWS V14.01,2013-05-20 02:20:00,
2013-05-20 04:21:00,60.5,55.3,30.07,West,265,0.0,0.0,83,0.00,,,0.00,VWS V14.01,2013-05-20 02:21:00,
2013-05-20 04:26:00,60.5,55.3,30.07,West,265,0.0,1.0,83,0.00,,,0.00,VWS V14.01,2013-05-20 02:26:00,
2013-05-20 04:30:00,60.8,55.6,30.06,West,265,0.0,3.0,83,0.00,,,0.00,VWS V14.01,2013-05-20 02:30:00,
2013-05-20 04:31:00,60.7,55.5,30.06,West,265,3.0,3.0,83,0.00,,,0.00,VWS V14.01,2013-05-20 02:31:00,
2013-05-20 04:36:00,61.0,55.5,30.06,West,265,0.0,3.0,82,0.00,,,0.00,VWS V14.01,2013-05-20 02:36:00,
2013-05-20 04:40:00,61.2,55.7,30.06,West,265,0.0,3.0,82,0.00,,,0.00,VWS V14.01,2013-05-20 02:40:00,
2013-05-20 04:41:00,61.2,55.7,30.06,West,265,0.0,3.0,82,0.00,,,0.00,VWS V14.01,2013-05-20 02:41:00,
2013-05-20 04:46:00,61.3,55.8,30.06,West,265,0.0,2.0,82,0.00,,,0.00,VWS V14.01,2013-05-20 02:46:00,
2013-05-20 04:50:00,61.1,55.2,30.06,West,265,0.0,2.0,81,0.00,,,0.00,VWS V14.01,2013-05-20 02:50:00,
2013-05-20 04:51:00,61.2,55.3,30.06,West,265,0.0,2.0,81,0.00,,,0.00,VWS V14.01,2013-05-20 02:51:00,
2013-05-20 04:56:00,61.0,55.1,30.06,West,265,0.0,0.0,81,0.00,,,0.00,VWS V14.01,2013-05-20 02:56:00,
2013-05-20 05:00:00,60.9,55.4,30.06,West,265,0.0,0.0,82,0.00,,,0.00,VWS V14.01,2013-05-20 03:00:00,
2013-05-20 05:01:00,60.9,55.4,30.06,West,265,0.0,0.0,82,0.00,,,0.00,VWS V14.01,2013-05-20 03:01:00,
2013-05-20 05:06:00,61.1,55.6,30.06,West,265,2.0,4.0,82,0.00,,,0.00,VWS V14.01,2013-05-20 03:06:00,
2013-05-20 05:10:00,61.2,55.3,30.06,West,265,0.0,4.0,81,0.00,,,0.00,VWS V14.01,2013-05-20 03:10:00,
2013-05-20 05:11:00,61.2,55.3,30.06,West,265,2.0,4.0,81,0.00,,,0.00,VWS V14.01,2013-05-20 03:11:00,
2013-05-20 05:16:00,61.2,55.3,30.06,West,265,1.0,3.0,81,0.00,,,0.00,VWS V14.01,2013-05-20 03:16:00,
2013-05-20 05:20:00,61.0,55.1,30.06,West,265,2.0,3.0,81,0.00,,,0.00,VWS V14.01,2013-05-20 03:20:00,
2013-05-20 05:21:00,61.1,55.2,30.06,West,265,0.0,3.0,81,0.00,,,0.00,VWS V14.01,2013-05-20 03:21:00,
2013-05-20 05:26:00,60.9,55.0,30.06,West,265,0.0,3.0,81,0.00,,,0.00,VWS V14.01,2013-05-20 03:26:00,
2013-05-20 05:30:00,60.6,54.8,30.06,West,265,0.0,3.0,81,0.00,,,0.00,VWS V14.01,2013-05-20 03:30:00,
2013-05-20 05:31:00,60.6,54.8,30.06,West,265,0.0,3.0,81,0.00,,,0.00,VWS V14.01,2013-05-20 03:31:00,
2013-05-20 05:36:00,60.5,54.7,30.06,West,265,0.0,1.0,81,0.00,,,0.00,VWS V14.01,2013-05-20 03:36:00,
2013-05-20 05:40:00,60.4,54.9,30.06,West,265,0.0,1.0,82,0.00,,,0.00,VWS V14.01,2013-05-20 03:40:00,
2013-05-20 05:41:00,60.4,54.5,30.06,West,265,0.0,1.0,81,0.00,,,0.00,VWS V14.01,2013-05-20 03:41:00,
2013-05-20 05:46:00,60.4,54.9,30.06,West,265,0.0,0.0,82,0.00,,,0.00,VWS V14.01,2013-05-20 03:46:00,
2013-05-20 05:50:00,60.5,55.0,30.06,West,265,0.0,0.0,82,0.00,,,0.00,VWS V14.01,2013-05-20 03:50:00,
2013-05-20 05:51:00,60.5,55.0,30.06,West,265,0.0,0.0,82,0.00,,,0.00,VWS V14.01,2013-05-20 03:51:00,
2013-05-20 05:56:00,60.6,55.1,30.06,West,265,0.0,1.0,82,0.00,,,0.00,VWS V14.01,2013-05-20 03:56:00,
2013-05-20 06:00:00,61.1,55.6,30.06,West,265,0.0,5.0,82,0.00,,,0.00,VWS V14.01,2013-05-20 04:00:00,
2013-05-20 06:01:00,61.0,55.5,30.06,West,265,3.0,5.0,82,0.00,,,0.00,VWS V14.01,2013-05-20 04:01:00,
2013-05-20 06:06:00,61.2,55.3,30.06,West,265,0.0,1.0,81,0.00,,,0.00,VWS V14.01,2013-05-20 04:06:00,
2013-05-20 06:10:00,61.4,55.5,30.06,West,265,0.0,3.0,81,0.00,,,0.00,VWS V14.01,2013-05-20 04:10:00,
2013-05-20 06:11:00,61.3,55.4,30.06,West,265,0.0,3.0,81,0.00,,,0.00,VWS V14.01,2013-05-20 04:11:00,
2013-05-20 06:16:00,61.4,55.5,30.06,West,265,3.0,3.0,81,0.00,,,0.00,VWS V14.01,2013-05-20 04:16:00,
2013-05-20 06:20:00,61.6,55.7,30.06,West,265,0.0,4.0,81,0.00,,,0.00,VWS V14.01,2013-05-20 04:20:00,
2013-05-20 06:21:00,61.5,55.6,30.07,West,265,0.0,4.0,81,0.00,,,0.00,VWS V14.01,2013-05-20 04:21:00,
2013-05-20 06:26:00,61.7,55.8,30.06,West,265,0.0,0.0,81,0.00,,,0.00,VWS V14.01,2013-05-20 04:26:00,
2013-05-20 06:30:00,62.0,55.8,30.06,West,265,0.0,3.0,80,0.00,,,0.00,VWS V14.01,2013-05-20 04:30:00,
2013-05-20 06:31:00,62.0,55.8,30.07,West,265,0.0,3.0,80,0.00,,,0.00,VWS V14.01,2013-05-20 04:31:00,
2013-05-20 06:36:00,62.1,55.9,30.06,West,265,0.0,0.0,80,0.00,,,0.00,VWS V14.01,2013-05-20 04:36:00,
2013-05-20 06:40:00,62.4,55.8,30.06,West,265,1.0,2.0,79,0.00,,,0.00,VWS V14.01,2013-05-20 04:40:00,
2013-05-20 06:41:00,62.4,56.2,30.06,West,265,0.0,2.0,80,0.00,,,0.00,VWS V14.01,2013-05-20 04:41:00,
2013-05-20 06:46:00,62.5,55.9,30.06,West,265,0.0,1.0,79,0.00,,,0.00,VWS V14.01,2013-05-20 04:46:00,
2013-05-20 06:50:00,63.1,56.5,30.06,West,265,0.0,1.0,79,0.00,,,0.00,VWS V14.01,2013-05-20 04:50:00,
2013-05-20 06:51:00,63.0,56.4,30.06,West,265,0.0,1.0,79,0.00,,,0.00,VWS V14.01,2013-05-20 04:51:00,
2013-05-20 06:56:00,63.3,56.3,30.06,West,265,3.0,4.0,78,0.00,,,0.00,VWS V14.01,2013-05-20 04:56:00,
2013-05-20 07:00:00,63.3,56.3,30.06,SW,229,4.0,6.0,78,0.00,,,0.00,VWS V14.01,2013-05-20 05:00:00,
2013-05-20 07:01:00,63.4,56.4,30.06,WSW,250,5.0,5.0,78,0.00,,,0.00,VWS V14.01,2013-05-20 05:01:00,
2013-05-20 07:06:00,63.4,56.4,30.07,SW,229,1.0,5.0,78,0.00,,,0.00,VWS V14.01,2013-05-20 05:06:00,
2013-05-20 07:10:00,63.8,56.8,30.07,SW,229,1.0,5.0,78,0.00,,,0.00,VWS V14.01,2013-05-20 05:10:00,
2013-05-20 07:11:00,63.7,56.7,30.07,SW,229,0.0,5.0,78,0.00,,,0.00,VWS V14.01,2013-05-20 05:11:00,
2013-05-20 07:16:00,63.9,56.6,30.07,SW,229,1.0,4.0,77,0.00,,,0.00,VWS V14.01,2013-05-20 05:16:00,
2013-05-20 07:20:00,63.9,56.6,30.07,SW,229,2.0,4.0,77,0.00,,,0.00,VWS V14.01,2013-05-20 05:20:00,
2013-05-20 07:21:00,63.9,56.6,30.07,SW,229,3.0,4.0,77,0.00,,,0.00,VWS V14.01,2013-05-20 05:21:00,
2013-05-20 07:26:00,64.0,56.7,30.07,SW,229,5.0,6.0,77,0.00,,,0.00,VWS V14.01,2013-05-20 05:26:00,
2013-05-20 07:30:00,63.8,56.8,30.07,WSW,242,6.0,7.0,78,0.00,,,0.00,VWS V14.01,2013-05-20 05:30:00,
2013-05-20 07:31:00,63.9,56.9,30.07,WSW,240,5.0,7.0,78,0.00,,,0.00,VWS V14.01,2013-05-20 05:31:00,
2013-05-20 07:36:00,63.7,56.7,30.07,SW,215,7.0,7.0,78,0.00,,,0.00,VWS V14.01,2013-05-20 05:36:00,
2013-05-20 07:40:00,63.8,56.8,30.07,SW,220,5.0,7.0,78,0.00,,,0.00,VWS V14.01,2013-05-20 05:40:00,
2013-05-20 07:41:00,63.8,56.8,30.07,SW,225,5.0,7.0,78,0.00,,,0.00,VWS V14.01,2013-05-20 05:41:00,
2013-05-20 07:46:00,64.0,57.0,30.07,WSW,239,5.0,7.0,78,0.00,,,0.00,VWS V14.01,2013-05-20 05:46:00,
2013-05-20 07:50:00,64.1,57.1,30.08,SW,231,6.0,8.0,78,0.00,,,0.00,VWS V14.01,2013-05-20 05:50:00,
2013-05-20 07:51:00,64.2,57.2,30.08,WSW,237,5.0,7.0,78,0.00,,,0.00,VWS V14.01,2013-05-20 05:51:00,
2013-05-20 07:56:00,64.3,57.3,30.08,SW,228,6.0,6.0,78,0.00,,,0.00,VWS V14.01,2013-05-20 05:56:00,
2013-05-20 08:00:00,64.3,57.3,30.07,SW,225,6.0,8.0,78,0.00,,,0.00,VWS V14.01,2013-05-20 06:00:00,
2013-05-20 08:01:00,64.4,57.4,30.08,SW,215,6.0,8.0,78,0.00,,,0.00,VWS V14.01,2013-05-20 06:01:00,
2013-05-20 08:06:00,64.5,57.5,30.08,SW,217,5.0,7.0,78,0.00,,,0.00,VWS V14.01,2013-05-20 06:06:00,
2013-05-20 08:10:00,64.6,57.6,30.07,South,190,6.0,10.0,78,0.00,,,0.00,VWS V14.01,2013-05-20 06:10:00,
2013-05-20 08:11:00,64.6,57.6,30.08,SW,229,7.0,10.0,78,0.00,,,0.00,VWS V14.01,2013-05-20 06:11:00,
2013-05-20 08:16:00,64.6,57.6,30.08,SSW,213,5.0,8.0,78,0.00,,,0.00,VWS V14.01,2013-05-20 06:16:00,
2013-05-20 08:20:00,64.9,57.9,30.07,SW,220,3.0,8.0,78,0.00,,,0.00,VWS V14.01,2013-05-20 06:20:00,
2013-05-20 08:21:00,64.9,57.9,30.07,SSW,208,4.0,8.0,78,0.00,,,0.00,VWS V14.01,2013-05-20 06:21:00,
2013-05-20 08:26:00,65.1,58.1,30.07,SW,223,4.0,8.0,78,0.00,,,0.00,VWS V14.01,2013-05-20 06:26:00,
2013-05-20 08:30:00,65.0,58.0,30.07,WSW,242,3.0,9.0,78,0.00,,,0.00,VWS V14.01,2013-05-20 06:30:00,
2013-05-20 08:31:00,64.8,57.8,30.07,SW,225,4.0,9.0,78,0.00,,,0.00,VWS V14.01,2013-05-20 06:31:00,
2013-05-20 08:36:00,64.9,57.9,30.07,SW,225,7.0,8.0,78,0.00,,,0.00,VWS V14.01,2013-05-20 06:36:00,
2013-05-20 08:40:00,64.5,57.8,30.08,SSW,213,5.0,10.0,79,0.00,,,0.00,VWS V14.01,2013-05-20 06:40:00,
2013-05-20 08:41:00,64.6,58.0,30.08,SW,221,10.0,10.0,79,0.00,,,0.00,VWS V14.01,2013-05-20 06:41:00,
2013-05-20 08:46:00,64.8,58.1,30.08,WSW,243,4.0,6.0,79,0.00,,,0.00,VWS V14.01,2013-05-20 06:46:00,
2013-05-20 08:50:00,65.2,58.2,30.08,SW,219,11.0,11.0,78,0.00,,,0.00,VWS V14.01,2013-05-20 06:50:00,
2013-05-20 08:51:00,65.3,58.3,30.08,SSW,200,6.0,10.0,78,0.00,,,0.00,VWS V14.01,2013-05-20 06:51:00,
2013-05-20 08:56:00,64.9,57.9,30.08,SSW,209,5.0,11.0,78,0.00,,,0.00,VWS V14.01,2013-05-20 06:56:00,
2013-05-20 09:00:00,65.5,58.5,30.08,SW,221,4.0,11.0,78,0.00,,,0.00,VWS V14.01,2013-05-20 07:00:00,
2013-05-20 09:01:00,65.3,58.6,30.08,SW,227,10.0,11.0,79,0.00,,,0.00,VWS V14.01,2013-05-20 07:01:00,
2013-05-20 09:06:00,65.5,58.5,30.08,South,175,9.0,10.0,78,0.00,,,0.00,VWS V14.01,2013-05-20 07:06:00,
2013-05-20 09:10:00,65.3,58.6,30.08,SW,215,7.0,11.0,79,0.00,,,0.00,VWS V14.01,2013-05-20 07:10:00,
2013-05-20 09:11:00,65.3,58.6,30.08,SSW,192,9.0,11.0,79,0.00,,,0.00,VWS V14.01,2013-05-20 07:11:00,
2013-05-20 09:16:00,65.5,58.5,30.08,SSW,198,8.0,11.0,78,0.00,,,0.00,VWS V14.01,2013-05-20 07:16:00,
2013-05-20 09:20:00,66.1,59.4,30.09,South,178,10.0,11.0,79,0.00,,,0.00,VWS V14.01,2013-05-20 07:20:00,
2013-05-20 09:21:00,65.8,59.1,30.08,WSW,246,7.0,11.0,79,0.00,,,0.00,VWS V14.01,2013-05-20 07:21:00,
2013-05-20 09:26:00,65.8,58.8,30.09,SW,219,9.0,10.0,78,0.00,,,0.00,VWS V14.01,2013-05-20 07:26:00,
2013-05-20 09:30:00,66.0,59.0,30.09,SW,234,2.0,10.0,78,0.00,,,0.00,VWS V14.01,2013-05-20 07:30:00,
2013-05-20 09:31:00,65.9,58.9,30.09,SSW,194,7.0,10.0,78,0.00,,,0.00,VWS V14.01,2013-05-20 07:31:00,
2013-05-20 09:36:00,66.4,59.3,30.09,WSW,254,6.0,9.0,78,0.00,,,0.00,VWS V14.01,2013-05-20 07:36:00,
2013-05-20 09:40:00,66.2,58.8,30.09,SSW,208,7.0,12.0,77,0.00,,,0.00,VWS V14.01,2013-05-20 07:40:00,
2013-05-20 09:41:00,66.2,59.2,30.09,SSW,201,3.0,12.0,78,0.00,,,0.00,VWS V14.01,2013-05-20 07:41:00,
2013-05-20 09:46:00,65.5,57.7,30.09,SW,215,6.0,11.0,76,0.00,,,0.00,VWS V14.01,2013-05-20 07:46:00,
2013-05-20 09:50:00,66.3,58.9,30.09,SSW,198,5.0,12.0,77,0.00,,,0.00,VWS V14.01,2013-05-20 07:50:00,
2013-05-20 09:51:00,66.2,58.8,30.09,South,186,3.0,12.0,77,0.00,,,0.00,VWS V14.01,2013-05-20 07:51:00,
2013-05-20 09:56:00,66.2,58.8,30.09,WSW,246,8.0,10.0,77,0.00,,,0.00,VWS V14.01,2013-05-20 07:56:00,
2013-05-20 10:00:00,66.7,59.3,30.09,SSW,205,3.0,10.0,77,0.00,,,0.00,VWS V14.01,2013-05-20 08:00:00,
2013-05-20 10:01:00,66.5,59.1,30.09,SW,224,10.0,10.0,77,0.00,,,0.00,VWS V14.01,2013-05-20 08:01:00,
2013-05-20 10:06:00,66.7,58.9,30.09,SW,233,4.0,8.0,76,0.00,,,0.00,VWS V14.01,2013-05-20 08:06:00,
2013-05-20 10:10:00,66.5,58.7,30.09,SSW,206,3.0,13.0,76,0.00,,,0.00,VWS V14.01,2013-05-20 08:10:00,
2013-05-20 10:11:00,66.2,58.4,30.09,South,172,6.0,13.0,76,0.00,,,0.00,VWS V14.01,2013-05-20 08:11:00,
2013-05-20 10:16:00,66.4,58.2,30.09,SW,226,6.0,10.0,75,0.00,,,0.00,VWS V14.01,2013-05-20 08:16:00,
2013-05-20 10:20:00,66.3,58.5,30.09,SW,227,5.0,12.0,76,0.00,,,0.00,VWS V14.01,2013-05-20 08:20:00,
2013-05-20 10:21:00,66.3,58.5,30.09,SW,223,7.0,12.0,76,0.00,,,0.00,VWS V14.01,2013-05-20 08:21:00,
2013-05-20 10:26:00,66.5,58.7,30.09,SW,222,11.0,12.0,76,0.00,,,0.00,VWS V14.01,2013-05-20 08:26:00,
2013-05-20 10:30:00,67.4,59.2,30.09,WSW,237,5.0,12.0,75,0.00,,,0.00,VWS V14.01,2013-05-20 08:30:00,
2013-05-20 10:31:00,67.0,58.8,30.09,SW,215,5.0,12.0,75,0.00,,,0.00,VWS V14.01,2013-05-20 08:31:00,
2013-05-20 10:36:00,66.8,58.3,30.09,SSW,211,7.0,13.0,74,0.00,,,0.00,VWS V14.01,2013-05-20 08:36:00,
2013-05-20 10:40:00,66.2,58.4,30.09,SW,215,10.0,13.0,76,0.00,,,0.00,VWS V14.01,2013-05-20 08:40:00,
2013-05-20 10:41:00,66.3,57.8,30.09,SW,231,8.0,13.0,74,0.00,,,0.00,VWS V14.01,2013-05-20 08:41:00,
2013-05-20 10:46:00,66.8,59.0,30.09,SSW,200,3.0,10.0,76,0.00,,,0.00,VWS V14.01,2013-05-20 08:46:00,
2013-05-20 10:50:00,67.0,58.8,30.09,SW,219,13.0,13.0,75,0.00,,,0.00,VWS V14.01,2013-05-20 08:50:00,
2013-05-20 10:51:00,67.1,58.9,30.09,SSW,203,7.0,12.0,75,0.00,,,0.00,VWS V14.01,2013-05-20 08:51:00,
2013-05-20 10:56:00,66.5,58.7,30.09,South,173,5.0,13.0,76,0.00,,,0.00,VWS V14.01,2013-05-20 08:56:00,
2013-05-20 11:00:00,67.1,58.5,30.09,SSW,207,7.0,13.0,74,0.00,,,0.00,VWS V14.01,2013-05-20 09:00:00,
2013-05-20 11:01:00,67.3,58.7,30.09,SSW,194,7.0,13.0,74,0.00,,,0.00,VWS V14.01,2013-05-20 09:01:00,
2013-05-20 11:06:00,67.2,58.6,30.09,SW,235,9.0,11.0,74,0.00,,,0.00,VWS V14.01,2013-05-20 09:06:00,
2013-05-20 11:10:00,66.9,58.7,30.09,SW,231,5.0,13.0,75,0.00,,,0.00,VWS V14.01,2013-05-20 09:10:00,
2013-05-20 11:11:00,66.8,58.3,30.09,SSW,194,8.0,13.0,74,0.00,,,0.00,VWS V14.01,2013-05-20 09:11:00,
2013-05-20 11:16:00,66.5,58.0,30.09,WSW,241,8.0,14.0,74,0.00,,,0.00,VWS V14.01,2013-05-20 09:16:00,
2013-05-20 11:20:00,66.6,58.4,30.09,South,188,9.0,14.0,75,0.00,,,0.00,VWS V14.01,2013-05-20 09:20:00,
2013-05-20 11:21:00,66.7,58.2,30.09,South,180,13.0,14.0,74,0.00,,,0.00,VWS V14.01,2013-05-20 09:21:00,
2013-05-20 11:26:00,67.0,58.8,30.09,West,263,7.0,11.0,75,0.00,,,0.00,VWS V14.01,2013-05-20 09:26:00,
2013-05-20 11:30:00,66.9,58.0,30.09,WSW,242,6.0,12.0,73,0.00,,,0.00,VWS V14.01,2013-05-20 09:30:00,
2013-05-20 11:31:00,67.3,58.7,30.09,SSW,211,10.0,12.0,74,0.00,,,0.00,VWS V14.01,2013-05-20 09:31:00,
2013-05-20 11:36:00,67.1,58.5,30.09,SSW,207,7.0,12.0,74,0.00,,,0.00,VWS V14.01,2013-05-20 09:36:00,
2013-05-20 11:40:00,66.7,58.2,30.10,SSE,165,5.0,13.0,74,0.00,,,0.00,VWS V14.01,2013-05-20 09:40:00,
2013-05-20 11:41:00,66.9,58.0,30.10,SW,219,11.0,13.0,73,0.00,,,0.00,VWS V14.01,2013-05-20 09:41:00,
2013-05-20 11:46:00,66.7,57.8,30.10,WSW,238,10.0,13.0,73,0.00,,,0.00,VWS V14.01,2013-05-20 09:46:00,
2013-05-20 11:50:00,66.5,58.0,30.10,SW,227,12.0,14.0,74,0.00,,,0.00,VWS V14.01,2013-05-20 09:50:00,
2013-05-20 11:51:00,66.6,58.1,30.10,South,182,11.0,13.0,74,0.00,,,0.00,VWS V14.01,2013-05-20 09:51:00,
2013-05-20 11:56:00,66.4,58.2,30.10,SSW,213,7.0,14.0,75,0.00,,,0.00,VWS V14.01,2013-05-20 09:56:00,
2013-05-20 12:00:00,67.1,58.9,30.10,SW,229,9.0,14.0,75,0.00,,,0.00,VWS V14.01,2013-05-20 10:00:00,
2013-05-20 12:01:00,66.8,58.6,30.10,SSW,197,7.0,14.0,75,0.00,,,0.00,VWS V14.01,2013-05-20 10:01:00,
2013-05-20 12:06:00,67.0,58.8,30.10,South,188,9.0,13.0,75,0.00,,,0.00,VWS V14.01,2013-05-20 10:06:00,
2013-05-20 12:10:00,66.9,58.3,30.10,SSW,211,8.0,13.0,74,0.00,,,0.00,VWS V14.01,2013-05-20 10:10:00,
2013-05-20 12:11:00,67.2,59.0,30.10,WSW,247,11.0,13.0,75,0.00,,,0.00,VWS V14.01,2013-05-20 10:11:00,
2013-05-20 12:16:00,66.7,58.2,30.10,SW,233,13.0,15.0,74,0.00,,,0.00,VWS V14.01,2013-05-20 10:16:00,
2013-05-20 12:20:00,66.9,58.3,30.10,SW,220,7.0,15.0,74,0.00,,,0.00,VWS V14.01,2013-05-20 10:20:00,
2013-05-20 12:21:00,66.8,58.6,30.10,SW,217,10.0,15.0,75,0.00,,,0.00,VWS V14.01,2013-05-20 10:21:00,
2013-05-20 12:26:00,67.3,58.7,30.10,SW,227,10.0,13.0,74,0.00,,,0.00,VWS V14.01,2013-05-20 10:26:00,
2013-05-20 12:30:00,67.3,58.7,30.10,South,172,10.0,14.0,74,0.00,,,0.00,VWS V14.01,2013-05-20 10:30:00,
2013-05-20 12:31:00,67.0,58.1,30.10,WNW,289,9.0,14.0,73,0.00,,,0.00,VWS V14.01,2013-05-20 10:31:00,
2013-05-20 12:36:00,66.8,57.9,30.10,SSW,200,10.0,16.0,73,0.00,,,0.00,VWS V14.01,2013-05-20 10:36:00,
2013-05-20 12:40:00,67.2,58.3,30.10,SSW,210,11.0,16.0,73,0.00,,,0.00,VWS V14.01,2013-05-20 10:40:00,
2013-05-20 12:41:00,67.4,58.8,30.10,WSW,242,6.0,16.0,74,0.00,,,0.00,VWS V14.01,2013-05-20 10:41:00,
2013-05-20 12:46:00,67.0,58.5,30.10,WSW,254,11.0,16.0,74,0.00,,,0.00,VWS V14.01,2013-05-20 10:46:00,
2013-05-20 12:50:00,67.1,58.9,30.10,SSW,213,10.0,16.0,75,0.00,,,0.00,VWS V14.01,2013-05-20 10:50:00,
2013-05-20 12:51:00,66.8,58.3,30.10,SW,219,8.0,16.0,74,0.00,,,0.00,VWS V14.01,2013-05-20 10:51:00,
2013-05-20 12:56:00,67.5,58.9,30.10,SSW,194,5.0,14.0,74,0.00,,,0.00,VWS V14.01,2013-05-20 10:56:00,
2013-05-20 13:00:00,67.3,58.0,30.10,SSW,197,3.0,14.0,72,0.00,,,0.00,VWS V14.01,2013-05-20 11:00:00,
2013-05-20 13:01:00,67.3,58.4,30.10,SW,227,12.0,14.0,73,0.00,,,0.00,VWS V14.01,2013-05-20 11:01:00,
2013-05-20 13:06:00,67.2,58.3,30.10,SW,217,11.0,15.0,73,0.00,,,0.00,VWS V14.01,2013-05-20 11:06:00,
2013-05-20 13:10:00,66.9,58.0,30.10,SW,234,11.0,16.0,73,0.00,,,0.00,VWS V14.01,2013-05-20 11:10:00,
2013-05-20 13:11:00,66.6,57.7,30.10,WSW,248,6.0,16.0,73,0.00,,,0.00,VWS V14.01,2013-05-20 11:11:00,
2013-05-20 13:16:00,67.1,57.4,30.10,SSW,204,12.0,14.0,71,0.00,,,0.00,VWS V14.01,2013-05-20 11:16:00,
2013-05-20 13:20:00,67.3,58.0,30.10,SSW,211,16.0,16.0,72,0.00,,,0.00,VWS V14.01,2013-05-20 11:20:00,
2013-05-20 13:21:00,67.0,57.7,30.10,SSW,211,10.0,15.0,72,0.00,,,0.00,VWS V14.01,2013-05-20 11:21:00,
2013-05-20 13:26:00,67.1,57.4,30.10,SW,225,12.0,16.0,71,0.00,,,0.00,VWS V14.01,2013-05-20 11:26:00,
2013-05-20 13:30:00,67.5,57.4,30.10,SW,216,12.0,16.0,70,0.00,,,0.00,VWS V14.01,2013-05-20 11:30:00,
2013-05-20 13:31:00,67.4,57.7,30.10,SW,214,8.0,16.0,71,0.00,,,0.00,VWS V14.01,2013-05-20 11:31:00,
2013-05-20 13:36:00,68.2,58.5,30.10,SSW,212,7.0,12.0,71,0.00,,,0.00,VWS V14.01,2013-05-20 11:36:00,
2013-05-20 13:40:00,67.2,57.5,30.10,SW,219,12.0,15.0,71,0.00,,,0.00,VWS V14.01,2013-05-20 11:40:00,
2013-05-20 13:41:00,67.5,57.4,30.10,SW,217,11.0,15.0,70,0.00,,,0.00,VWS V14.01,2013-05-20 11:41:00,
2013-05-20 13:46:00,66.5,57.2,30.11,SW,227,7.0,14.0,72,0.00,,,0.00,VWS V14.01,2013-05-20 11:46:00,
2013-05-20 13:50:00,66.8,57.1,30.11,WSW,241,3.0,14.0,71,0.00,,,0.00,VWS V14.01,2013-05-20 11:50:00,
2013-05-20 13:51:00,66.6,57.3,30.10,WSW,250,6.0,14.0,72,0.00,,,0.00,VWS V14.01,2013-05-20 11:51:00,
2013-05-20 13:56:00,66.9,57.6,30.10,SW,220,4.0,10.0,72,0.00,,,0.00,VWS V14.01,2013-05-20 11:56:00,
2013-05-20 14:00:00,67.1,57.4,30.10,South,177,9.0,14.0,71,0.00,,,0.00,VWS V14.01,2013-05-20 12:00:00,
2013-05-20 14:01:00,66.9,56.8,30.10,SSW,202,9.0,14.0,70,0.00,,,0.00,VWS V14.01,2013-05-20 12:01:00,
2013-05-20 14:06:00,67.2,57.1,30.10,WSW,246,9.0,12.0,70,0.00,,,0.00,VWS V14.01,2013-05-20 12:06:00,
2013-05-20 14:10:00,67.3,57.6,30.10,South,190,9.0,13.0,71,0.00,,,0.00,VWS V14.01,2013-05-20 12:10:00,
2013-05-20 14:11:00,67.1,57.4,30.10,SW,215,9.0,13.0,71,0.00,,,0.00,VWS V14.01,2013-05-20 12:11:00,
2013-05-20 14:16:00,67.8,58.1,30.09,South,185,6.0,14.0,71,0.00,,,0.00,VWS V14.01,2013-05-20 12:16:00,
2013-05-20 14:20:00,68.1,57.6,30.09,SSW,207,13.0,14.0,69,0.00,,,0.00,VWS V14.01,2013-05-20 12:20:00,
2013-05-20 14:21:00,68.4,58.2,30.09,SW,223,10.0,14.0,70,0.00,,,0.00,VWS V14.01,2013-05-20 12:21:00,
2013-05-20 14:26:00,67.8,57.7,30.09,SW,233,11.0,14.0,70,0.00,,,0.00,VWS V14.01,2013-05-20 12:26:00,
2013-05-20 14:30:00,67.9,57.4,30.09,South,174,9.0,14.0,69,0.00,,,0.00,VWS V14.01,2013-05-20 12:30:00,
2013-05-20 14:31:00,68.2,57.7,30.09,SSW,205,7.0,14.0,69,0.00,,,0.00,VWS V14.01,2013-05-20 12:31:00,
2013-05-20 14:36:00,68.5,58.3,30.09,WSW,237,8.0,11.0,70,0.00,,,0.00,VWS V14.01,2013-05-20 12:36:00,
2013-05-20 14:40:00,68.3,57.8,30.10,WSW,257,10.0,13.0,69,0.00,,,0.00,VWS V14.01,2013-05-20 12:40:00,
2013-05-20 14:41:00,68.4,57.8,30.10,WSW,239,7.0,12.0,69,0.00,,,0.00,VWS V14.01,2013-05-20 12:41:00,
2013-05-20 14:46:00,68.0,57.5,30.10,SW,229,6.0,14.0,69,0.00,,,0.00,VWS V14.01,2013-05-20 12:46:00,
2013-05-20 14:50:00,68.1,57.6,30.10,SW,229,7.0,14.0,69,0.00,,,0.00,VWS V14.01,2013-05-20 12:50:00,
2013-05-20 14:51:00,68.4,58.2,30.10,West,271,8.0,14.0,70,0.00,,,0.00,VWS V14.01,2013-05-20 12:51:00,
2013-05-20 14:56:00,67.8,57.3,30.10,SW,226,10.0,13.0,69,0.00,,,0.00,VWS V14.01,2013-05-20 12:56:00,
2013-05-20 15:00:00,67.6,57.9,30.10,SW,217,13.0,17.0,71,0.00,,,0.00,VWS V14.01,2013-05-20 13:00:00,
2013-05-20 15:01:00,67.6,57.1,30.10,SW,214,11.0,17.0,69,0.00,,,0.00,VWS V14.01,2013-05-20 13:01:00,
2013-05-20 15:06:00,68.1,58.0,30.10,SW,224,11.0,14.0,70,0.00,,,0.00,VWS V14.01,2013-05-20 13:06:00,
2013-05-20 15:10:00,67.6,57.1,30.10,SSW,202,12.0,15.0,69,0.00,,,0.00,VWS V14.01,2013-05-20 13:10:00,
2013-05-20 15:11:00,67.8,57.7,30.10,SSW,197,9.0,14.0,70,0.00,,,0.00,VWS V14.01,2013-05-20 13:11:00,
2013-05-20 15:16:00,67.8,58.1,30.10,SW,225,9.0,12.0,71,0.00,,,0.00,VWS V14.01,2013-05-20 13:16:00,
2013-05-20 15:20:00,68.0,57.5,30.10,SW,227,13.0,14.0,69,0.00,,,0.00,VWS V14.01,2013-05-20 13:20:00,
2013-05-20 15:21:00,68.5,57.9,30.09,SSW,196,10.0,13.0,69,0.00,,,0.00,VWS V14.01,2013-05-20 13:21:00,
2013-05-20 15:26:00,67.2,57.5,30.09,South,185,10.0,17.0,71,0.00,,,0.00,VWS V14.01,2013-05-20 13:26:00,
2013-05-20 15:30:00,67.1,57.4,30.10,SSW,213,6.0,17.0,71,0.00,,,0.00,VWS V14.01,2013-05-20 13:30:00,
2013-05-20 15:31:00,67.2,57.5,30.09,SSW,213,7.0,17.0,71,0.00,,,0.00,VWS V14.01,2013-05-20 13:31:00,
2013-05-20 15:36:00,66.9,57.2,30.10,SSW,211,10.0,14.0,71,0.00,,,0.00,VWS V14.01,2013-05-20 13:36:00,
2013-05-20 15:40:00,66.6,57.3,30.10,SSW,207,7.0,14.0,72,0.00,,,0.00,VWS V14.01,2013-05-20 13:40:00,
2013-05-20 15:41:00,67.0,57.7,30.10,SW,234,8.0,14.0,72,0.00,,,0.00,VWS V14.01,2013-05-20 13:41:00,
2013-05-20 15:46:00,66.3,57.4,30.10,SSW,204,4.0,13.0,73,0.00,,,0.00,VWS V14.01,2013-05-20 13:46:00,
2013-05-20 15:50:00,66.0,57.1,30.10,SW,234,10.0,14.0,73,0.00,,,0.00,VWS V14.01,2013-05-20 13:50:00,
2013-05-20 15:51:00,66.0,56.7,30.10,SW,230,10.0,14.0,72,0.00,,,0.00,VWS V14.01,2013-05-20 13:51:00,
2013-05-20 15:56:00,66.4,57.1,30.10,WSW,246,4.0,12.0,72,0.00,,,0.00,VWS V14.01,2013-05-20 13:56:00,
2013-05-20 16:00:00,66.9,56.8,30.10,WSW,238,10.0,14.0,70,0.00,,,0.00,VWS V14.01,2013-05-20 14:00:00,
2013-05-20 16:01:00,66.8,56.7,30.10,SW,233,10.0,14.0,70,0.00,,,0.00,VWS V14.01,2013-05-20 14:01:00,
2013-05-20 16:06:00,67.1,57.4,30.09,SW,229,11.0,14.0,71,0.00,,,0.00,VWS V14.01,2013-05-20 14:06:00,
2013-05-20 16:10:00,66.5,56.0,30.10,WSW,243,8.0,15.0,69,0.00,,,0.00,VWS V14.01,2013-05-20 14:10:00,
2013-05-20 16:11:00,66.8,56.7,30.10,SW,234,7.0,14.0,70,0.00,,,0.00,VWS V14.01,2013-05-20 14:11:00,
2013-05-20 16:16:00,66.8,56.3,30.10,WSW,244,9.0,13.0,69,0.00,,,0.00,VWS V14.01,2013-05-20 14:16:00,
2013-05-20 16:20:00,66.7,56.6,30.10,West,261,5.0,13.0,70,0.00,,,0.00,VWS V14.01,2013-05-20 14:20:00,
2013-05-20 16:21:00,66.6,56.5,30.10,WSW,254,3.0,13.0,70,0.00,,,0.00,VWS V14.01,2013-05-20 14:21:00,
2013-05-20 16:26:00,67.1,57.4,30.09,WSW,244,11.0,13.0,71,0.00,,,0.00,VWS V14.01,2013-05-20 14:26:00,
2013-05-20 16:30:00,67.0,56.5,30.09,SW,230,8.0,13.0,69,0.00,,,0.00,VWS V14.01,2013-05-20 14:30:00,
2013-05-20 16:31:00,67.1,57.0,30.09,SW,231,10.0,13.0,70,0.00,,,0.00,VWS V14.01,2013-05-20 14:31:00,
2013-05-20 16:36:00,67.7,56.4,30.09,WSW,237,4.0,10.0,67,0.00,,,0.00,VWS V14.01,2013-05-20 14:36:00,
2013-05-20 16:40:00,67.5,54.9,30.09,West,264,4.0,14.0,64,0.00,,,0.00,VWS V14.01,2013-05-20 14:40:00,
2013-05-20 16:41:00,67.3,54.7,30.09,SW,232,7.0,14.0,64,0.00,,,0.00,VWS V14.01,2013-05-20 14:41:00,
2013-05-20 16:46:00,68.2,56.0,30.09,West,265,3.0,9.0,65,0.00,,,0.00,VWS V14.01,2013-05-20 14:46:00,
2013-05-20 16:50:00,68.4,54.0,30.09,WSW,251,6.0,12.0,60,0.00,,,0.00,VWS V14.01,2013-05-20 14:50:00,
2013-05-20 16:51:00,67.9,53.5,30.09,WNW,282,5.0,12.0,60,0.00,,,0.00,VWS V14.01,2013-05-20 14:51:00,
2013-05-20 16:56:00,68.4,53.5,30.09,WSW,242,8.0,9.0,59,0.00,,,0.00,VWS V14.01,2013-05-20 14:56:00,
2013-05-20 17:00:00,68.3,51.0,30.09,WSW,238,8.0,12.0,54,0.00,,,0.00,VWS V14.01,2013-05-20 15:00:00,
2013-05-20 17:01:00,68.4,51.6,30.09,West,265,4.0,12.0,55,0.00,,,0.00,VWS V14.01,2013-05-20 15:01:00,
2013-05-20 17:06:00,68.1,51.3,30.09,West,264,8.0,9.0,55,0.00,,,0.00,VWS V14.01,2013-05-20 15:06:00,
2013-05-20 17:10:00,67.3,53.4,30.09,SW,232,7.0,11.0,61,0.00,,,0.00,VWS V14.01,2013-05-20 15:10:00,
2013-05-20 17:11:00,67.4,53.5,30.09,West,267,6.0,10.0,61,0.00,,,0.00,VWS V14.01,2013-05-20 15:11:00,
2013-05-20 17:16:00,67.7,55.1,30.09,WSW,258,3.0,10.0,64,0.00,,,0.00,VWS V14.01,2013-05-20 15:16:00,
2013-05-20 17:20:00,68.2,54.2,30.09,WSW,257,4.0,11.0,61,0.00,,,0.00,VWS V14.01,2013-05-20 15:20:00,
2013-05-20 17:21:00,68.1,54.2,30.09,WSW,252,3.0,11.0,61,0.00,,,0.00,VWS V14.01,2013-05-20 15:21:00,
2013-05-20 17:26:00,67.8,53.0,30.09,WNW,287,8.0,13.0,59,0.00,,,0.00,VWS V14.01,2013-05-20 15:26:00,
2013-05-20 17:30:00,68.4,54.0,30.09,West,266,1.0,13.0,60,0.00,,,0.00,VWS V14.01,2013-05-20 15:30:00,
2013-05-20 17:31:00,68.4,54.4,30.09,West,277,4.0,13.0,61,0.00,,,0.00,VWS V14.01,2013-05-20 15:31:00,
2013-05-20 17:36:00,68.3,53.0,30.09,WSW,253,2.0,12.0,58,0.00,,,0.00,VWS V14.01,2013-05-20 15:36:00,
2013-05-20 17:40:00,67.5,53.1,30.09,West,260,7.0,13.0,60,0.00,,,0.00,VWS V14.01,2013-05-20 15:40:00,
2013-05-20 17:41:00,67.7,53.8,30.09,West,260,5.0,13.0,61,0.00,,,0.00,VWS V14.01,2013-05-20 15:41:00,
2013-05-20 17:46:00,67.6,53.2,30.09,WSW,244,8.0,12.0,60,0.00,,,0.00,VWS V14.01,2013-05-20 15:46:00,
2013-05-20 17:50:00,67.4,52.1,30.09,West,269,6.0,12.0,58,0.00,,,0.00,VWS V14.01,2013-05-20 15:50:00,
2013-05-20 17:51:00,67.7,52.4,30.09,WSW,251,10.0,12.0,58,0.00,,,0.00,VWS V14.01,2013-05-20 15:51:00,
2013-05-20 17:56:00,66.9,52.1,30.08,WSW,254,7.0,12.0,59,0.00,,,0.00,VWS V14.01,2013-05-20 15:56:00,
2013-05-20 18:00:00,66.6,53.6,30.08,West,277,7.0,12.0,63,0.00,,,0.00,VWS V14.01,2013-05-20 16:00:00,
2013-05-20 18:01:00,66.6,53.2,30.08,WSW,257,7.0,12.0,62,0.00,,,0.00,VWS V14.01,2013-05-20 16:01:00,
2013-05-20 18:06:00,66.5,53.5,30.08,West,277,6.0,12.0,63,0.00,,,0.00,VWS V14.01,2013-05-20 16:06:00,
2013-05-20 18:10:00,66.9,53.9,30.08,WSW,251,9.0,12.0,63,0.00,,,0.00,VWS V14.01,2013-05-20 16:10:00,
2013-05-20 18:11:00,66.9,53.9,30.08,WSW,243,9.0,12.0,63,0.00,,,0.00,VWS V14.01,2013-05-20 16:11:00,
2013-05-20 18:16:00,66.7,53.7,30.08,WSW,251,4.0,11.0,63,0.00,,,0.00,VWS V14.01,2013-05-20 16:16:00,
2013-05-20 18:20:00,67.1,54.5,30.08,WSW,257,5.0,11.0,64,0.00,,,0.00,VWS V14.01,2013-05-20 16:20:00,
2013-05-20 18:21:00,67.2,54.6,30.08,West,259,3.0,11.0,64,0.00,,,0.00,VWS V14.01,2013-05-20 16:21:00,
2013-05-20 18:26:00,66.8,54.2,30.08,West,262,8.0,11.0,64,0.00,,,0.00,VWS V14.01,2013-05-20 16:26:00,
2013-05-20 18:30:00,66.7,54.2,30.08,West,270,3.0,11.0,64,0.00,,,0.00,VWS V14.01,2013-05-20 16:30:00,
2013-05-20 18:31:00,66.7,54.2,30.08,WSW,247,8.0,11.0,64,0.00,,,0.00,VWS V14.01,2013-05-20 16:31:00,
2013-05-20 18:36:00,67.0,54.4,30.08,West,271,10.0,10.0,64,0.00,,,0.00,VWS V14.01,2013-05-20 16:36:00,
2013-05-20 18:40:00,66.7,54.2,30.08,WNW,294,8.0,11.0,64,0.00,,,0.00,VWS V14.01,2013-05-20 16:40:00,
2013-05-20 18:41:00,66.7,53.7,30.08,West,259,5.0,11.0,63,0.00,,,0.00,VWS V14.01,2013-05-20 16:41:00,
2013-05-20 18:46:00,66.6,53.6,30.08,WSW,252,8.0,10.0,63,0.00,,,0.00,VWS V14.01,2013-05-20 16:46:00,
2013-05-20 18:50:00,66.6,54.1,30.08,WSW,257,8.0,10.0,64,0.00,,,0.00,VWS V14.01,2013-05-20 16:50:00,
2013-05-20 18:51:00,66.5,54.0,30.08,West,267,5.0,10.0,64,0.00,,,0.00,VWS V14.01,2013-05-20 16:51:00,
2013-05-20 18:56:00,66.5,54.4,30.08,West,262,7.0,9.0,65,0.00,,,0.00,VWS V14.01,2013-05-20 16:56:00,
2013-05-20 19:00:00,66.3,53.8,30.08,West,259,4.0,9.0,64,0.00,,,0.00,VWS V14.01,2013-05-20 17:00:00,
2013-05-20 19:01:00,66.4,53.9,30.08,WSW,251,7.0,9.0,64,0.00,,,0.00,VWS V14.01,2013-05-20 17:01:00,
2013-05-20 19:06:00,66.4,54.3,30.08,West,281,6.0,6.0,65,0.00,,,0.00,VWS V14.01,2013-05-20 17:06:00,
2013-05-20 19:10:00,66.4,53.9,30.08,WSW,254,7.0,11.0,64,0.00,,,0.00,VWS V14.01,2013-05-20 17:10:00,
2013-05-20 19:11:00,66.4,53.9,30.08,WSW,252,6.0,11.0,64,0.00,,,0.00,VWS V14.01,2013-05-20 17:11:00,
2013-05-20 19:16:00,66.3,53.8,30.08,WSW,244,5.0,10.0,64,0.00,,,0.00,VWS V14.01,2013-05-20 17:16:00,
2013-05-20 19:20:00,66.1,53.6,30.08,WNW,288,7.0,10.0,64,0.00,,,0.00,VWS V14.01,2013-05-20 17:20:00,
2013-05-20 19:21:00,66.2,54.1,30.08,West,276,9.0,10.0,65,0.00,,,0.00,VWS V14.01,2013-05-20 17:21:00,
2013-05-20 19:26:00,66.0,53.5,30.08,West,273,4.0,8.0,64,0.00,,,0.00,VWS V14.01,2013-05-20 17:26:00,
2013-05-20 19:30:00,65.7,53.2,30.08,WSW,252,6.0,10.0,64,0.00,,,0.00,VWS V14.01,2013-05-20 17:30:00,
2013-05-20 19:31:00,65.7,53.2,30.08,West,279,5.0,10.0,64,0.00,,,0.00,VWS V14.01,2013-05-20 17:31:00,
2013-05-20 19:36:00,65.6,53.1,30.08,West,268,2.0,9.0,64,0.00,,,0.00,VWS V14.01,2013-05-20 17:36:00,
2013-05-20 19:40:00,65.5,53.4,30.08,West,281,6.0,9.0,65,0.00,,,0.00,VWS V14.01,2013-05-20 17:40:00,
2013-05-20 19:41:00,65.5,53.4,30.08,West,269,2.0,9.0,65,0.00,,,0.00,VWS V14.01,2013-05-20 17:41:00,
2013-05-20 19:46:00,65.4,53.3,30.08,WNW,293,6.0,6.0,65,0.00,,,0.00,VWS V14.01,2013-05-20 17:46:00,
2013-05-20 19:50:00,65.0,53.0,30.09,West,275,1.0,7.0,65,0.00,,,0.00,VWS V14.01,2013-05-20 17:50:00,
2013-05-20 19:51:00,65.1,53.1,30.08,West,275,0.0,7.0,65,0.00,,,0.00,VWS V14.01,2013-05-20 17:51:00,
2013-05-20 19:56:00,64.9,53.3,30.09,West,275,4.0,5.0,66,0.00,,,0.00,VWS V14.01,2013-05-20 17:56:00,
2013-05-20 20:00:00,64.8,53.2,30.09,West,271,5.0,7.0,66,0.00,,,0.00,VWS V14.01,2013-05-20 18:00:00,
2013-05-20 20:01:00,64.9,53.3,30.09,West,270,1.0,7.0,66,0.00,,,0.00,VWS V14.01,2013-05-20 18:01:00,
2013-05-20 20:06:00,64.5,52.9,30.09,WNW,291,2.0,6.0,66,0.00,,,0.00,VWS V14.01,2013-05-20 18:06:00,
2013-05-20 20:10:00,64.2,53.0,30.09,WNW,294,2.0,7.0,67,0.00,,,0.00,VWS V14.01,2013-05-20 18:10:00,
2013-05-20 20:11:00,64.2,53.0,30.09,WNW,293,2.0,7.0,67,0.00,,,0.00,VWS V14.01,2013-05-20 18:11:00,
2013-05-20 20:16:00,64.2,53.0,30.09,WNW,294,2.0,5.0,67,0.00,,,0.00,VWS V14.01,2013-05-20 18:16:00,
2013-05-20 20:20:00,64.1,52.9,30.09,WNW,294,2.0,5.0,67,0.00,,,0.00,VWS V14.01,2013-05-20 18:20:00,
2013-05-20 20:21:00,64.1,52.9,30.09,WNW,294,2.0,5.0,67,0.00,,,0.00,VWS V14.01,2013-05-20 18:21:00,
2013-05-20 20:26:00,64.0,52.8,30.09,WNW,302,4.0,7.0,67,0.00,,,0.00,VWS V14.01,2013-05-20 18:26:00,
2013-05-20 20:30:00,63.9,53.1,30.09,WNW,302,2.0,7.0,68,0.00,,,0.00,VWS V14.01,2013-05-20 18:30:00,
2013-05-20 20:31:00,64.0,53.2,30.09,WNW,302,0.0,7.0,68,0.00,,,0.00,VWS V14.01,2013-05-20 18:31:00,
2013-05-20 20:36:00,63.7,53.0,30.09,WNW,302,2.0,2.0,68,0.00,,,0.00,VWS V14.01,2013-05-20 18:36:00,
2013-05-20 20:40:00,63.5,52.8,30.09,WNW,302,2.0,2.0,68,0.00,,,0.00,VWS V14.01,2013-05-20 18:40:00,
2013-05-20 20:41:00,63.6,52.9,30.09,WNW,302,1.0,2.0,68,0.00,,,0.00,VWS V14.01,2013-05-20 18:41:00,
2013-05-20 20:46:00,63.4,52.7,30.09,WNW,302,2.0,2.0,68,0.00,,,0.00,VWS V14.01,2013-05-20 18:46:00,
2013-05-20 20:50:00,63.3,53.0,30.09,WNW,302,0.0,5.0,69,0.00,,,0.00,VWS V14.01,2013-05-20 18:50:00,
2013-05-20 20:51:00,63.3,53.0,30.09,WNW,302,1.0,5.0,69,0.00,,,0.00,VWS V14.01,2013-05-20 18:51:00,
2013-05-20 20:56:00,63.2,52.9,30.09,WNW,302,2.0,2.0,69,0.00,,,0.00,VWS V14.01,2013-05-20 18:56:00,
2013-05-20 21:00:00,63.0,52.7,30.09,WNW,302,3.0,4.0,69,0.00,,,0.00,VWS V14.01,2013-05-20 19:00:00,
2013-05-20 21:01:00,63.0,52.7,30.10,WNW,302,3.0,4.0,69,0.00,,,0.00,VWS V14.01,2013-05-20 19:01:00,
2013-05-20 21:06:00,63.0,52.7,30.09,WNW,302,2.0,3.0,69,0.00,,,0.00,VWS V14.01,2013-05-20 19:06:00,
2013-05-20 21:10:00,63.1,52.4,30.09,WNW,302,3.0,3.0,68,0.00,,,0.00,VWS V14.01,2013-05-20 19:10:00,
2013-05-20 21:11:00,63.1,52.4,30.09,WNW,302,2.0,3.0,68,0.00,,,0.00,VWS V14.01,2013-05-20 19:11:00,
2013-05-20 21:16:00,63.2,52.1,30.09,WNW,302,2.0,4.0,67,0.00,,,0.00,VWS V14.01,2013-05-20 19:16:00,
2013-05-20 21:20:00,63.1,52.0,30.09,WNW,302,2.0,4.0,67,0.00,,,0.00,VWS V14.01,2013-05-20 19:20:00,
2013-05-20 21:21:00,63.1,52.0,30.09,WNW,302,2.0,4.0,67,0.00,,,0.00,VWS V14.01,2013-05-20 19:21:00,
2013-05-20 21:26:00,63.0,51.9,30.09,WNW,302,4.0,4.0,67,0.00,,,0.00,VWS V14.01,2013-05-20 19:26:00,
2013-05-20 21:30:00,62.6,51.5,30.09,WNW,302,2.0,4.0,67,0.00,,,0.00,VWS V14.01,2013-05-20 19:30:00,
2013-05-20 21:31:00,62.8,51.7,30.09,WNW,302,2.0,4.0,67,0.00,,,0.00,VWS V14.01,2013-05-20 19:31:00,
2013-05-20 21:36:00,62.4,51.7,30.09,WNW,302,1.0,3.0,68,0.00,,,0.00,VWS V14.01,2013-05-20 19:36:00,
2013-05-20 21:40:00,62.1,51.4,30.10,WNW,302,3.0,4.0,68,0.00,,,0.00,VWS V14.01,2013-05-20 19:40:00,
2013-05-20 21:41:00,62.2,51.5,30.10,WNW,302,3.0,4.0,68,0.00,,,0.00,VWS V14.01,2013-05-20 19:41:00,
2013-05-20 21:46:00,62.0,51.7,30.10,WNW,302,3.0,3.0,69,0.00,,,0.00,VWS V14.01,2013-05-20 19:46:00,
2013-05-20 21:50:00,62.3,51.6,30.09,WNW,302,4.0,4.0,68,0.00,,,0.00,VWS V14.01,2013-05-20 19:50:00,
2013-05-20 21:51:00,62.2,51.9,30.10,WNW,302,3.0,4.0,69,0.00,,,0.00,VWS V14.01,2013-05-20 19:51:00,
2013-05-20 21:56:00,62.4,51.7,30.09,WNW,302,2.0,4.0,68,0.00,,,0.00,VWS V14.01,2013-05-20 19:56:00,
2013-05-20 22:00:00,62.8,51.7,30.09,WNW,302,2.0,4.0,67,0.00,,,0.00,VWS V14.01,2013-05-20 20:00:00,
2013-05-20 22:01:00,62.7,51.6,30.09,WNW,302,0.0,4.0,67,0.00,,,0.00,VWS V14.01,2013-05-20 20:01:00,
2013-05-20 22:06:00,62.8,51.7,30.08,WNW,302,1.0,2.0,67,0.00,,,0.00,VWS V14.01,2013-05-20 20:06:00,
2013-05-20 22:10:00,63.0,51.9,30.08,WNW,302,1.0,2.0,67,0.00,,,0.00,VWS V14.01,2013-05-20 20:10:00,
2013-05-20 22:11:00,62.9,51.8,30.09,WNW,302,1.0,2.0,67,0.00,,,0.00,VWS V14.01,2013-05-20 20:11:00,
2013-05-20 22:16:00,63.0,51.9,30.08,WNW,302,1.0,2.0,67,0.00,,,0.00,VWS V14.01,2013-05-20 20:16:00,
2013-05-20 22:20:00,63.0,51.5,30.09,WNW,302,1.0,3.0,66,0.00,,,0.00,VWS V14.01,2013-05-20 20:20:00,
2013-05-20 22:21:00,63.0,51.5,30.08,WNW,302,1.0,2.0,66,0.00,,,0.00,VWS V14.01,2013-05-20 20:21:00,
2013-05-20 22:26:00,62.7,51.6,30.08,WNW,302,2.0,2.0,67,0.00,,,0.00,VWS V14.01,2013-05-20 20:26:00,
2013-05-20 22:30:00,62.4,51.3,30.09,NW,314,3.0,4.0,67,0.00,,,0.00,VWS V14.01,2013-05-20 20:30:00,
2013-05-20 22:31:00,62.5,51.4,30.09,WNW,302,3.0,3.0,67,0.00,,,0.00,VWS V14.01,2013-05-20 20:31:00,
2013-05-20 22:36:00,62.3,51.2,30.08,NNE,12,2.0,4.0,67,0.00,,,0.00,VWS V14.01,2013-05-20 20:36:00,
2013-05-20 22:40:00,61.9,51.2,30.08,NNE,20,4.0,5.0,68,0.00,,,0.00,VWS V14.01,2013-05-20 20:40:00,
2013-05-20 22:41:00,61.9,51.2,30.08,NNE,13,4.0,5.0,68,0.00,,,0.00,VWS V14.01,2013-05-20 20:41:00,
2013-05-20 22:46:00,62.0,50.9,30.08,NNE,21,2.0,5.0,67,0.00,,,0.00,VWS V14.01,2013-05-20 20:46:00,
2013-05-20 22:50:00,61.6,51.0,30.09,NNE,21,2.0,5.0,68,0.00,,,0.00,VWS V14.01,2013-05-20 20:50:00,
2013-05-20 22:51:00,61.7,51.0,30.09,NNE,21,5.0,5.0,68,0.00,,,0.00,VWS V14.01,2013-05-20 20:51:00,
2013-05-20 22:56:00,61.3,50.7,30.09,NNE,21,4.0,4.0,68,0.00,,,0.00,VWS V14.01,2013-05-20 20:56:00,
2013-05-20 23:00:00,61.2,51.0,30.09,NNE,21,4.0,5.0,69,0.00,,,0.00,VWS V14.01,2013-05-20 21:00:00,
2013-05-20 23:01:00,61.1,50.9,30.09,NNE,21,5.0,5.0,69,0.00,,,0.00,VWS V14.01,2013-05-20 21:01:00,
2013-05-20 23:06:00,61.5,51.2,30.08,NNE,23,4.0,5.0,69,0.00,,,0.00,VWS V14.01,2013-05-20 21:06:00,
2013-05-20 23:10:00,61.9,51.2,30.08,NNE,32,4.0,6.0,68,0.00,,,0.00,VWS V14.01,2013-05-20 21:10:00,
2013-05-20 23:11:00,61.9,51.2,30.08,NNE,32,6.0,6.0,68,0.00,,,0.00,VWS V14.01,2013-05-20 21:11:00,
2013-05-20 23:16:00,61.9,50.8,30.08,NE,34,5.0,6.0,67,0.00,,,0.00,VWS V14.01,2013-05-20 21:16:00,
2013-05-20 23:20:00,61.9,50.8,30.08,NE,36,4.0,6.0,67,0.00,,,0.00,VWS V14.01,2013-05-20 21:20:00,
2013-05-20 23:21:00,61.9,50.8,30.08,NE,36,4.0,6.0,67,0.00,,,0.00,VWS V14.01,2013-05-20 21:21:00,
2013-05-20 23:26:00,61.9,51.2,30.08,NE,36,4.0,5.0,68,0.00,,,0.00,VWS V14.01,2013-05-20 21:26:00,
2013-05-20 23:30:00,61.6,51.0,30.07,NE,35,4.0,6.0,68,0.00,,,0.00,VWS V14.01,2013-05-20 21:30:00,
2013-05-20 23:31:00,61.6,51.0,30.08,NE,35,4.0,6.0,68,0.00,,,0.00,VWS V14.01,2013-05-20 21:31:00,
2013-05-20 23:36:00,61.8,51.1,30.08,NE,35,4.0,6.0,68,0.00,,,0.00,VWS V14.01,2013-05-20 21:36:00,
2013-05-20 23:40:00,62.3,51.2,30.07,NE,46,3.0,8.0,67,0.00,,,0.00,VWS V14.01,2013-05-20 21:40:00,
2013-05-20 23:41:00,62.1,51.4,30.07,NE,46,5.0,8.0,68,0.00,,,0.00,VWS V14.01,2013-05-20 21:41:00,
2013-05-20 23:46:00,62.1,51.0,30.07,NE,46,4.0,6.0,67,0.00,,,0.00,VWS V14.01,2013-05-20 21:46:00,
2013-05-20 23:50:00,62.3,51.2,30.07,NE,49,3.0,6.0,67,0.00,,,0.00,VWS V14.01,2013-05-20 21:50:00,
2013-05-20 23:51:00,62.3,51.2,30.07,NE,49,2.0,6.0,67,0.00,,,0.00,VWS V14.01,2013-05-20 21:51:00,
2013-05-20 23:56:00,62.1,51.0,30.07,NE,49,3.0,4.0,67,0.00,,,0.00,VWS V14.01,2013-05-20 21:56:00,